Terminal Aerodrome Forecast
Issued by NWS Cleveland, OH

Home | Current Version | Previous Version | Graphics & Text | Print | Product List | Glossary On
Versions: 1 2 3 4 5 6 7 8 9 10 11 12 13 14
000
FTUS41 KCLE 301700
TAFTOL
TAF
KTOL 301731Z 3018/0118 36010KT P6SM VCSH SCT018 OVC035
     FM302100 36010KT P6SM VCSH SCT018 OVC035
      TEMPO 3021/0101 SCT018 OVC030
     FM010100 35005KT P6SM BKN035
     FM010500 34005KT P6SM BKN060=

USA.gov is the U.S. government's official web portal to all federal, state and local government web resources and services.